< < Back
Terminal Aerodrome Forecast


Current Version              Previous Versions:   1  2  3  4  5  6  7  8  9  

Terminal Aerodrome Forecast

293
FTUS44 KMRX 240520
TAFTYS
TAF
KTYS 240520Z 2406/2506 00000KT P6SM SKC
     FM241600 20009KT P6SM FEW050
     FM250000 20003KT P6SM SCT250=

Latest METAR

433
SAUS80 KWBC 250500 RRA
MTRTYS
METAR KTYS 250453Z 21005KT 10SM SCT250 21/11 A3022 RMK AO2 SLP223
T02110106 402940133


USA.gov is the U.S. government's official web portal to all federal, state and local government web resources and services.